sensor_id;sensor_type;location;lat;lon;timestamp;P1;durP1;ratioP1;P2;durP2;ratioP2
52438;SDS011;38359;53.150;6.504;2022-12-07T00:04:23;12.45;;;1.70;;
52438;SDS011;38359;53.150;6.504;2022-12-07T00:14:48;13.35;;;1.52;;
52438;SDS011;38359;53.150;6.504;2022-12-07T00:25:14;13.50;;;1.77;;
52438;SDS011;38359;53.150;6.504;2022-12-07T00:35:40;12.48;;;1.50;;
52438;SDS011;38359;53.150;6.504;2022-12-07T00:46:06;10.20;;;1.58;;
52438;SDS011;38359;53.150;6.504;2022-12-07T00:56:32;7.10;;;1.00;;
52438;SDS011;38359;53.150;6.504;2022-12-07T01:06:57;8.02;;;1.23;;
52438;SDS011;38359;53.150;6.504;2022-12-07T01:17:23;9.07;;;0.73;;
52438;SDS011;38359;53.150;6.504;2022-12-07T01:27:49;6.95;;;1.30;;
52438;SDS011;38359;53.150;6.504;2022-12-07T01:38:15;9.90;;;0.95;;
52438;SDS011;38359;53.150;6.504;2022-12-07T01:48:40;16.73;;;1.70;;
52438;SDS011;38359;53.150;6.504;2022-12-07T01:59:07;15.23;;;1.40;;
52438;SDS011;38359;53.150;6.504;2022-12-07T02:09:33;11.73;;;1.70;;
52438;SDS011;38359;53.150;6.504;2022-12-07T02:31:01;13.80;;;1.42;;
52438;SDS011;38359;53.150;6.504;2022-12-07T02:41:49;25.45;;;2.20;;
52438;SDS011;38359;53.150;6.504;2022-12-07T02:52:26;13.55;;;1.35;;
52438;SDS011;38359;53.150;6.504;2022-12-07T03:02:58;6.78;;;1.27;;
52438;SDS011;38359;53.150;6.504;2022-12-07T03:13:49;10.20;;;1.00;;
52438;SDS011;38359;53.150;6.504;2022-12-07T03:24:57;9.85;;;1.27;;
52438;SDS011;38359;53.150;6.504;2022-12-07T03:35:32;10.25;;;1.40;;
52438;SDS011;38359;53.150;6.504;2022-12-07T03:57:06;17.15;;;1.23;;
52438;SDS011;38359;53.150;6.504;2022-12-07T04:07:34;8.95;;;1.00;;
52438;SDS011;38359;53.150;6.504;2022-12-07T04:18:00;18.02;;;1.67;;
52438;SDS011;38359;53.150;6.504;2022-12-07T04:28:26;24.75;;;2.05;;
52438;SDS011;38359;53.150;6.504;2022-12-07T04:38:55;20.42;;;1.75;;
52438;SDS011;38359;53.150;6.504;2022-12-07T04:49:21;13.57;;;1.38;;
52438;SDS011;38359;53.150;6.504;2022-12-07T04:59:47;18.60;;;1.67;;
52438;SDS011;38359;53.150;6.504;2022-12-07T05:10:12;15.50;;;1.88;;
52438;SDS011;38359;53.150;6.504;2022-12-07T05:20:39;14.25;;;1.50;;
52438;SDS011;38359;53.150;6.504;2022-12-07T05:31:05;24.85;;;5.60;;
52438;SDS011;38359;53.150;6.504;2022-12-07T05:41:31;16.70;;;2.35;;
52438;SDS011;38359;53.150;6.504;2022-12-07T05:52:15;25.85;;;2.25;;
52438;SDS011;38359;53.150;6.504;2022-12-07T06:02:41;16.23;;;1.42;;
52438;SDS011;38359;53.150;6.504;2022-12-07T06:13:08;16.67;;;2.50;;
52438;SDS011;38359;53.150;6.504;2022-12-07T06:23:34;14.27;;;1.98;;
52438;SDS011;38359;53.150;6.504;2022-12-07T06:34:00;19.48;;;2.97;;
52438;SDS011;38359;53.150;6.504;2022-12-07T06:44:29;15.10;;;2.58;;
52438;SDS011;38359;53.150;6.504;2022-12-07T06:54:55;23.73;;;1.90;;
52438;SDS011;38359;53.150;6.504;2022-12-07T07:05:20;13.25;;;1.70;;
52438;SDS011;38359;53.150;6.504;2022-12-07T07:15:47;12.23;;;1.85;;
52438;SDS011;38359;53.150;6.504;2022-12-07T07:26:12;13.13;;;1.60;;
52438;SDS011;38359;53.150;6.504;2022-12-07T07:36:38;21.27;;;2.10;;
52438;SDS011;38359;53.150;6.504;2022-12-07T07:47:04;14.15;;;2.83;;
52438;SDS011;38359;53.150;6.504;2022-12-07T07:57:30;19.88;;;4.07;;
52438;SDS011;38359;53.150;6.504;2022-12-07T08:18:41;14.80;;;1.90;;
52438;SDS011;38359;53.150;6.504;2022-12-07T08:29:07;17.92;;;2.05;;
52438;SDS011;38359;53.150;6.504;2022-12-07T08:39:33;22.10;;;2.25;;
52438;SDS011;38359;53.150;6.504;2022-12-07T08:49:59;21.17;;;2.78;;
52438;SDS011;38359;53.150;6.504;2022-12-07T09:00:28;15.95;;;2.45;;
52438;SDS011;38359;53.150;6.504;2022-12-07T09:10:54;19.30;;;2.38;;
52438;SDS011;38359;53.150;6.504;2022-12-07T09:21:19;16.67;;;1.88;;
52438;SDS011;38359;53.150;6.504;2022-12-07T09:31:45;15.30;;;1.77;;
52438;SDS011;38359;53.150;6.504;2022-12-07T09:42:14;11.38;;;2.22;;
52438;SDS011;38359;53.150;6.504;2022-12-07T09:52:54;9.65;;;1.40;;
52438;SDS011;38359;53.150;6.504;2022-12-07T10:03:36;10.13;;;1.58;;
52438;SDS011;38359;53.150;6.504;2022-12-07T10:14:12;17.75;;;2.25;;
52438;SDS011;38359;53.150;6.504;2022-12-07T10:24:39;12.00;;;1.92;;
52438;SDS011;38359;53.150;6.504;2022-12-07T10:46:19;14.25;;;2.67;;
52438;SDS011;38359;53.150;6.504;2022-12-07T10:56:43;13.98;;;1.88;;
52438;SDS011;38359;53.150;6.504;2022-12-07T11:08:00;19.50;;;2.30;;
52438;SDS011;38359;53.150;6.504;2022-12-07T11:29:32;4.70;;;1.10;;
52438;SDS011;38359;53.150;6.504;2022-12-07T11:50:54;8.52;;;1.13;;
52438;SDS011;38359;53.150;6.504;2022-12-07T12:12:44;6.65;;;1.35;;
52438;SDS011;38359;53.150;6.504;2022-12-07T12:23:59;12.45;;;2.47;;
52438;SDS011;38359;53.150;6.504;2022-12-07T13:17:03;6.30;;;1.42;;
52438;SDS011;38359;53.150;6.504;2022-12-07T13:27:29;7.68;;;3.05;;
52438;SDS011;38359;53.150;6.504;2022-12-07T13:37:55;10.05;;;0.88;;
52438;SDS011;38359;53.150;6.504;2022-12-07T13:48:29;13.00;;;2.60;;
52438;SDS011;38359;53.150;6.504;2022-12-07T13:58:58;6.72;;;2.25;;
52438;SDS011;38359;53.150;6.504;2022-12-07T14:09:25;12.35;;;4.18;;
52438;SDS011;38359;53.150;6.504;2022-12-07T14:19:55;8.93;;;1.48;;
52438;SDS011;38359;53.150;6.504;2022-12-07T14:30:28;8.45;;;1.40;;
52438;SDS011;38359;53.150;6.504;2022-12-07T14:40:56;8.50;;;1.70;;
52438;SDS011;38359;53.150;6.504;2022-12-07T14:51:42;10.02;;;1.55;;
52438;SDS011;38359;53.150;6.504;2022-12-07T15:02:12;12.00;;;2.22;;
52438;SDS011;38359;53.150;6.504;2022-12-07T15:12:39;8.98;;;1.65;;
52438;SDS011;38359;53.150;6.504;2022-12-07T15:23:06;10.82;;;1.75;;
52438;SDS011;38359;53.150;6.504;2022-12-07T15:33:31;8.55;;;1.95;;
52438;SDS011;38359;53.150;6.504;2022-12-07T15:43:57;6.82;;;1.73;;
52438;SDS011;38359;53.150;6.504;2022-12-07T15:54:42;8.40;;;1.50;;
52438;SDS011;38359;53.150;6.504;2022-12-07T16:05:07;10.27;;;1.85;;
52438;SDS011;38359;53.150;6.504;2022-12-07T16:15:37;20.05;;;6.63;;
52438;SDS011;38359;53.150;6.504;2022-12-07T16:26:22;17.30;;;5.35;;
52438;SDS011;38359;53.150;6.504;2022-12-07T16:36:48;5.03;;;1.40;;
52438;SDS011;38359;53.150;6.504;2022-12-07T16:47:14;9.40;;;1.95;;
52438;SDS011;38359;53.150;6.504;2022-12-07T16:57:39;9.90;;;1.98;;
52438;SDS011;38359;53.150;6.504;2022-12-07T17:08:05;7.53;;;1.80;;
52438;SDS011;38359;53.150;6.504;2022-12-07T17:18:35;8.45;;;3.63;;
52438;SDS011;38359;53.150;6.504;2022-12-07T17:29:01;9.57;;;2.40;;
52438;SDS011;38359;53.150;6.504;2022-12-07T17:39:32;8.18;;;2.90;;
52438;SDS011;38359;53.150;6.504;2022-12-07T17:49:58;6.53;;;2.10;;
52438;SDS011;38359;53.150;6.504;2022-12-07T18:00:24;5.47;;;1.17;;
52438;SDS011;38359;53.150;6.504;2022-12-07T18:10:56;8.40;;;2.33;;
52438;SDS011;38359;53.150;6.504;2022-12-07T18:21:24;7.23;;;2.40;;
52438;SDS011;38359;53.150;6.504;2022-12-07T18:31:52;12.25;;;4.20;;
52438;SDS011;38359;53.150;6.504;2022-12-07T18:42:17;12.82;;;3.92;;
52438;SDS011;38359;53.150;6.504;2022-12-07T18:52:43;14.85;;;4.50;;
52438;SDS011;38359;53.150;6.504;2022-12-07T19:03:09;9.93;;;2.22;;
52438;SDS011;38359;53.150;6.504;2022-12-07T19:13:35;8.35;;;3.22;;
52438;SDS011;38359;53.150;6.504;2022-12-07T19:24:04;13.35;;;3.10;;
52438;SDS011;38359;53.150;6.504;2022-12-07T19:34:31;8.77;;;2.20;;
52438;SDS011;38359;53.150;6.504;2022-12-07T19:44:57;13.23;;;4.38;;
52438;SDS011;38359;53.150;6.504;2022-12-07T19:55:22;9.07;;;3.83;;
52438;SDS011;38359;53.150;6.504;2022-12-07T20:05:48;7.15;;;3.60;;
52438;SDS011;38359;53.150;6.504;2022-12-07T20:16:14;6.85;;;4.57;;
52438;SDS011;38359;53.150;6.504;2022-12-07T20:26:40;11.90;;;5.60;;
52438;SDS011;38359;53.150;6.504;2022-12-07T20:37:06;15.15;;;4.43;;
52438;SDS011;38359;53.150;6.504;2022-12-07T20:47:32;14.68;;;5.60;;
52438;SDS011;38359;53.150;6.504;2022-12-07T20:57:58;18.80;;;7.43;;
52438;SDS011;38359;53.150;6.504;2022-12-07T21:08:25;16.73;;;6.97;;
52438;SDS011;38359;53.150;6.504;2022-12-07T21:18:51;17.33;;;5.28;;
52438;SDS011;38359;53.150;6.504;2022-12-07T21:29:19;16.92;;;4.55;;
52438;SDS011;38359;53.150;6.504;2022-12-07T21:39:45;18.17;;;4.25;;
52438;SDS011;38359;53.150;6.504;2022-12-07T21:50:11;12.00;;;3.70;;
52438;SDS011;38359;53.150;6.504;2022-12-07T22:00:36;12.32;;;2.78;;
52438;SDS011;38359;53.150;6.504;2022-12-07T22:11:03;10.80;;;2.22;;
52438;SDS011;38359;53.150;6.504;2022-12-07T22:21:29;9.20;;;2.30;;
52438;SDS011;38359;53.150;6.504;2022-12-07T22:31:56;10.98;;;2.22;;
52438;SDS011;38359;53.150;6.504;2022-12-07T22:42:21;11.85;;;2.20;;
52438;SDS011;38359;53.150;6.504;2022-12-07T22:52:47;10.43;;;2.53;;
52438;SDS011;38359;53.150;6.504;2022-12-07T23:03:13;8.32;;;1.77;;
52438;SDS011;38359;53.150;6.504;2022-12-07T23:13:39;6.53;;;1.27;;
52438;SDS011;38359;53.150;6.504;2022-12-07T23:24:05;11.60;;;1.70;;
52438;SDS011;38359;53.150;6.504;2022-12-07T23:34:31;8.77;;;1.40;;
52438;SDS011;38359;53.150;6.504;2022-12-07T23:44:57;9.55;;;1.50;;
52438;SDS011;38359;53.150;6.504;2022-12-07T23:55:23;6.25;;;1.58;;
